Agadir, Morocco

6:06 AM WEST on August 02, 2015 (GMT +0100)
Al-Massira | | Change Station
CLOSE
Current Station
Airport
Location: Agadir Al Massira,
Elevation: 243 ft
Nearby Weather Stations

Elev 243 ft 30.33 °N, 9.40 °W | Updated 6 minutes ago

Overcast
Overcast
68 °F
Feels Like 68 °F
N
4
Wind Variable Wind from SSW

Today
High -- | Low -- °F
--% Chance of Precip.
Yesterday
High -- | Low -- °F
Precip. -- in
6:56 AM 8:31 PM
Waning Gibbous, 96% visible
Pressure 29.89 in
Visibility 6.2 miles
Clouds Overcast 1600 ft
Dew Point 61 °F
Humidity 78%
Rainfall 0.00 in
Snow Depth Not available.
UV 0 out of 12
Pollen Not available.
Air Quality Not available.
Flu Activity Not available.
METAR GMAD 020500Z 21003KT 160V260 9999 OVC016 20/16 Q1012 NOSIG

More Conditions Fewer Conditions

Pressure 29.89 in
Visibility 6.2 miles
Clouds Overcast 1600 ft
Dew Point 61 °F
Humidity 78%
Rainfall 0.00 in
Snow Depth Not available.
UV 0 out of 12
Pollen Not available.
Air Quality Not available.
Flu Activity Not available.
METAR GMAD 020500Z 21003KT 160V260 9999 OVC016 20/16 Q1012 NOSIG

More Conditions Fewer Conditions

10-Day Weather Forecast

×

Almanac

Astronomy

Aug. 02, 2015 Rise Set
Actual Time
Civil Twilight
Nautical Twilight
Astronomical Twilight
Moon
Length of Visible Light
Length of Day
Tomorrow will be .
, % of the Moon is Illuminated

Today's Extremes

Country Highs Country Lows

Community

WunderPhotos

Upload Photos

1,843,190 photos uploaded!

WunderBlogs® & News

Nearby

Air Quality

  Air Quality AQ Index Pollutant
Not available.

Snow Depth

Station Depth Elevation

Earthquake Activity

City Distance Mag. Time & Date
Minimum magnitude displayed is 2.5.

Coastal Water Temperatures

Place Temperature

Stations

Nearby Weather Stations

Station Location Temp. Windchill Dew Point Humidity Wind Precip. Elev Updated Type